sensor_id;sensor_type;location;lat;lon;timestamp;P1;durP1;ratioP1;P2;durP2;ratioP2
56423;SDS011;42329;43.516;3.684;2022-07-29T00:01:21;3.78;;;1.58;;
56423;SDS011;42329;43.516;3.684;2022-07-29T00:03:48;2.58;;;1.45;;
56423;SDS011;42329;43.516;3.684;2022-07-29T00:06:16;3.15;;;1.35;;
56423;SDS011;42329;43.516;3.684;2022-07-29T00:08:43;4.20;;;1.60;;
56423;SDS011;42329;43.516;3.684;2022-07-29T00:11:10;5.85;;;1.60;;
56423;SDS011;42329;43.516;3.684;2022-07-29T00:13:38;6.13;;;1.70;;
56423;SDS011;42329;43.516;3.684;2022-07-29T00:16:06;5.95;;;1.42;;
56423;SDS011;42329;43.516;3.684;2022-07-29T00:18:34;3.17;;;1.42;;
56423;SDS011;42329;43.516;3.684;2022-07-29T00:21:01;3.25;;;1.63;;
56423;SDS011;42329;43.516;3.684;2022-07-29T00:23:28;6.28;;;1.60;;
56423;SDS011;42329;43.516;3.684;2022-07-29T00:25:56;4.85;;;1.67;;
56423;SDS011;42329;43.516;3.684;2022-07-29T00:28:23;2.20;;;1.60;;
56423;SDS011;42329;43.516;3.684;2022-07-29T00:30:50;5.43;;;1.73;;
56423;SDS011;42329;43.516;3.684;2022-07-29T00:33:19;4.07;;;1.77;;
56423;SDS011;42329;43.516;3.684;2022-07-29T00:35:47;4.15;;;1.58;;
56423;SDS011;42329;43.516;3.684;2022-07-29T00:38:14;3.53;;;1.35;;
56423;SDS011;42329;43.516;3.684;2022-07-29T00:40:42;3.50;;;1.58;;
56423;SDS011;42329;43.516;3.684;2022-07-29T00:43:10;8.38;;;1.70;;
56423;SDS011;42329;43.516;3.684;2022-07-29T00:45:38;5.60;;;1.75;;
56423;SDS011;42329;43.516;3.684;2022-07-29T00:48:06;4.85;;;1.60;;
56423;SDS011;42329;43.516;3.684;2022-07-29T00:50:35;6.95;;;1.83;;
56423;SDS011;42329;43.516;3.684;2022-07-29T00:53:03;3.28;;;2.05;;
56423;SDS011;42329;43.516;3.684;2022-07-29T00:55:32;13.18;;;1.90;;
56423;SDS011;42329;43.516;3.684;2022-07-29T00:57:59;5.53;;;1.80;;
56423;SDS011;42329;43.516;3.684;2022-07-29T01:00:27;5.70;;;1.50;;
56423;SDS011;42329;43.516;3.684;2022-07-29T01:02:55;3.90;;;1.65;;
56423;SDS011;42329;43.516;3.684;2022-07-29T01:05:23;3.15;;;1.70;;
56423;SDS011;42329;43.516;3.684;2022-07-29T01:07:55;2.97;;;1.40;;
56423;SDS011;42329;43.516;3.684;2022-07-29T01:10:24;2.45;;;1.55;;
56423;SDS011;42329;43.516;3.684;2022-07-29T01:12:52;3.85;;;1.58;;
56423;SDS011;42329;43.516;3.684;2022-07-29T01:15:23;5.95;;;2.00;;
56423;SDS011;42329;43.516;3.684;2022-07-29T01:17:53;2.97;;;1.70;;
56423;SDS011;42329;43.516;3.684;2022-07-29T01:20:30;6.97;;;1.98;;
56423;SDS011;42329;43.516;3.684;2022-07-29T01:23:11;3.97;;;1.52;;
56423;SDS011;42329;43.516;3.684;2022-07-29T01:26:12;4.35;;;1.98;;
56423;SDS011;42329;43.516;3.684;2022-07-29T01:29:09;2.22;;;1.42;;
56423;SDS011;42329;43.516;3.684;2022-07-29T01:31:45;2.95;;;1.73;;
56423;SDS011;42329;43.516;3.684;2022-07-29T01:34:18;3.67;;;1.70;;
56423;SDS011;42329;43.516;3.684;2022-07-29T01:36:50;2.47;;;1.50;;
56423;SDS011;42329;43.516;3.684;2022-07-29T01:39:23;1.85;;;1.50;;
56423;SDS011;42329;43.516;3.684;2022-07-29T01:41:57;5.90;;;1.92;;
56423;SDS011;42329;43.516;3.684;2022-07-29T01:44:31;5.38;;;2.10;;
56423;SDS011;42329;43.516;3.684;2022-07-29T01:47:02;5.10;;;2.00;;
56423;SDS011;42329;43.516;3.684;2022-07-29T01:49:37;4.82;;;1.80;;
56423;SDS011;42329;43.516;3.684;2022-07-29T01:52:08;6.70;;;1.65;;
56423;SDS011;42329;43.516;3.684;2022-07-29T01:54:43;4.15;;;1.92;;
56423;SDS011;42329;43.516;3.684;2022-07-29T01:57:13;2.40;;;1.50;;
56423;SDS011;42329;43.516;3.684;2022-07-29T01:59:44;4.47;;;1.75;;
56423;SDS011;42329;43.516;3.684;2022-07-29T02:02:13;3.22;;;1.50;;
56423;SDS011;42329;43.516;3.684;2022-07-29T02:04:42;4.75;;;1.83;;
56423;SDS011;42329;43.516;3.684;2022-07-29T02:07:15;2.17;;;1.67;;
56423;SDS011;42329;43.516;3.684;2022-07-29T02:09:45;3.33;;;1.60;;
56423;SDS011;42329;43.516;3.684;2022-07-29T02:12:13;2.33;;;1.65;;
56423;SDS011;42329;43.516;3.684;2022-07-29T02:14:45;3.90;;;1.73;;
56423;SDS011;42329;43.516;3.684;2022-07-29T02:17:14;3.63;;;1.80;;
56423;SDS011;42329;43.516;3.684;2022-07-29T02:19:47;2.13;;;1.70;;
56423;SDS011;42329;43.516;3.684;2022-07-29T02:22:15;4.15;;;1.80;;
56423;SDS011;42329;43.516;3.684;2022-07-29T02:24:44;3.40;;;2.17;;
56423;SDS011;42329;43.516;3.684;2022-07-29T02:27:14;2.80;;;1.63;;
56423;SDS011;42329;43.516;3.684;2022-07-29T02:29:45;4.18;;;1.60;;
56423;SDS011;42329;43.516;3.684;2022-07-29T02:32:13;6.63;;;2.13;;
56423;SDS011;42329;43.516;3.684;2022-07-29T02:34:42;2.70;;;1.80;;
56423;SDS011;42329;43.516;3.684;2022-07-29T02:37:10;5.82;;;1.75;;
56423;SDS011;42329;43.516;3.684;2022-07-29T02:39:41;3.92;;;1.70;;
56423;SDS011;42329;43.516;3.684;2022-07-29T02:42:11;3.45;;;2.13;;
56423;SDS011;42329;43.516;3.684;2022-07-29T02:44:41;6.20;;;2.55;;
56423;SDS011;42329;43.516;3.684;2022-07-29T02:47:13;6.68;;;2.28;;
56423;SDS011;42329;43.516;3.684;2022-07-29T02:49:46;3.95;;;1.67;;
56423;SDS011;42329;43.516;3.684;2022-07-29T02:52:20;4.13;;;1.58;;
56423;SDS011;42329;43.516;3.684;2022-07-29T02:54:54;4.05;;;1.63;;
56423;SDS011;42329;43.516;3.684;2022-07-29T02:57:27;1.95;;;1.48;;
56423;SDS011;42329;43.516;3.684;2022-07-29T03:00:01;3.70;;;1.90;;
56423;SDS011;42329;43.516;3.684;2022-07-29T03:02:35;5.68;;;1.73;;
56423;SDS011;42329;43.516;3.684;2022-07-29T03:07:34;3.10;;;1.67;;
56423;SDS011;42329;43.516;3.684;2022-07-29T03:10:03;3.60;;;1.88;;
56423;SDS011;42329;43.516;3.684;2022-07-29T03:12:33;4.43;;;1.73;;
56423;SDS011;42329;43.516;3.684;2022-07-29T03:15:02;4.07;;;1.60;;
56423;SDS011;42329;43.516;3.684;2022-07-29T03:17:30;3.47;;;1.65;;
56423;SDS011;42329;43.516;3.684;2022-07-29T03:19:59;4.30;;;1.80;;
56423;SDS011;42329;43.516;3.684;2022-07-29T03:22:27;6.63;;;1.92;;
56423;SDS011;42329;43.516;3.684;2022-07-29T03:24:55;6.78;;;2.28;;
56423;SDS011;42329;43.516;3.684;2022-07-29T03:27:22;4.57;;;1.60;;
56423;SDS011;42329;43.516;3.684;2022-07-29T03:29:50;5.88;;;1.70;;
56423;SDS011;42329;43.516;3.684;2022-07-29T03:32:17;7.90;;;1.90;;
56423;SDS011;42329;43.516;3.684;2022-07-29T03:34:44;3.42;;;1.65;;
56423;SDS011;42329;43.516;3.684;2022-07-29T03:37:13;3.33;;;1.73;;
56423;SDS011;42329;43.516;3.684;2022-07-29T03:39:40;3.80;;;1.98;;
56423;SDS011;42329;43.516;3.684;2022-07-29T03:42:10;2.85;;;1.45;;
56423;SDS011;42329;43.516;3.684;2022-07-29T03:44:41;3.38;;;1.80;;
56423;SDS011;42329;43.516;3.684;2022-07-29T03:47:11;8.00;;;1.80;;
56423;SDS011;42329;43.516;3.684;2022-07-29T03:49:40;2.85;;;1.75;;
56423;SDS011;42329;43.516;3.684;2022-07-29T03:52:10;7.82;;;1.65;;
56423;SDS011;42329;43.516;3.684;2022-07-29T03:54:39;6.05;;;2.00;;
56423;SDS011;42329;43.516;3.684;2022-07-29T03:57:07;4.20;;;1.98;;
56423;SDS011;42329;43.516;3.684;2022-07-29T03:59:37;9.27;;;2.25;;
56423;SDS011;42329;43.516;3.684;2022-07-29T04:02:06;3.40;;;1.60;;
56423;SDS011;42329;43.516;3.684;2022-07-29T04:04:37;5.95;;;2.13;;
56423;SDS011;42329;43.516;3.684;2022-07-29T04:07:04;8.48;;;2.13;;
56423;SDS011;42329;43.516;3.684;2022-07-29T04:09:33;2.90;;;1.70;;
56423;SDS011;42329;43.516;3.684;2022-07-29T04:12:00;3.78;;;1.90;;
56423;SDS011;42329;43.516;3.684;2022-07-29T04:14:28;4.63;;;1.95;;
56423;SDS011;42329;43.516;3.684;2022-07-29T04:16:55;3.47;;;1.75;;
56423;SDS011;42329;43.516;3.684;2022-07-29T04:19:22;4.18;;;1.60;;
56423;SDS011;42329;43.516;3.684;2022-07-29T04:21:50;4.47;;;2.10;;
56423;SDS011;42329;43.516;3.684;2022-07-29T04:24:17;3.28;;;1.85;;
56423;SDS011;42329;43.516;3.684;2022-07-29T04:26:46;4.13;;;1.63;;
56423;SDS011;42329;43.516;3.684;2022-07-29T04:29:14;3.50;;;1.85;;
56423;SDS011;42329;43.516;3.684;2022-07-29T04:31:41;4.50;;;1.80;;
56423;SDS011;42329;43.516;3.684;2022-07-29T04:34:09;5.55;;;2.00;;
56423;SDS011;42329;43.516;3.684;2022-07-29T04:36:37;4.20;;;1.70;;
56423;SDS011;42329;43.516;3.684;2022-07-29T04:39:04;6.45;;;1.63;;
56423;SDS011;42329;43.516;3.684;2022-07-29T04:41:33;4.85;;;1.70;;
56423;SDS011;42329;43.516;3.684;2022-07-29T04:44:01;5.25;;;1.83;;
56423;SDS011;42329;43.516;3.684;2022-07-29T04:46:30;4.05;;;1.77;;
56423;SDS011;42329;43.516;3.684;2022-07-29T04:48:57;11.73;;;1.80;;
56423;SDS011;42329;43.516;3.684;2022-07-29T04:51:25;9.65;;;1.70;;
56423;SDS011;42329;43.516;3.684;2022-07-29T04:53:52;12.05;;;2.13;;
56423;SDS011;42329;43.516;3.684;2022-07-29T04:56:19;9.45;;;2.90;;
56423;SDS011;42329;43.516;3.684;2022-07-29T04:58:47;11.35;;;2.65;;
56423;SDS011;42329;43.516;3.684;2022-07-29T05:01:15;5.60;;;2.60;;
56423;SDS011;42329;43.516;3.684;2022-07-29T05:03:44;6.75;;;2.40;;
56423;SDS011;42329;43.516;3.684;2022-07-29T05:06:11;6.07;;;2.38;;
56423;SDS011;42329;43.516;3.684;2022-07-29T05:08:38;10.30;;;2.70;;
56423;SDS011;42329;43.516;3.684;2022-07-29T05:11:06;7.30;;;2.40;;
56423;SDS011;42329;43.516;3.684;2022-07-29T05:13:33;7.82;;;2.20;;
56423;SDS011;42329;43.516;3.684;2022-07-29T05:16:00;9.15;;;2.10;;
56423;SDS011;42329;43.516;3.684;2022-07-29T05:18:29;3.65;;;1.77;;
56423;SDS011;42329;43.516;3.684;2022-07-29T05:20:57;4.43;;;2.25;;
56423;SDS011;42329;43.516;3.684;2022-07-29T05:23:24;3.42;;;1.75;;
56423;SDS011;42329;43.516;3.684;2022-07-29T05:25:51;4.93;;;1.75;;
56423;SDS011;42329;43.516;3.684;2022-07-29T05:28:18;4.32;;;1.90;;
56423;SDS011;42329;43.516;3.684;2022-07-29T05:30:46;6.10;;;2.15;;
56423;SDS011;42329;43.516;3.684;2022-07-29T05:33:14;9.15;;;2.20;;
56423;SDS011;42329;43.516;3.684;2022-07-29T05:35:43;8.65;;;2.45;;
56423;SDS011;42329;43.516;3.684;2022-07-29T05:38:10;8.80;;;1.95;;
56423;SDS011;42329;43.516;3.684;2022-07-29T05:40:37;3.70;;;2.17;;
56423;SDS011;42329;43.516;3.684;2022-07-29T05:43:05;13.73;;;2.55;;
56423;SDS011;42329;43.516;3.684;2022-07-29T05:45:32;11.52;;;2.85;;
56423;SDS011;42329;43.516;3.684;2022-07-29T05:47:59;3.20;;;2.13;;
56423;SDS011;42329;43.516;3.684;2022-07-29T05:50:27;10.88;;;2.75;;
56423;SDS011;42329;43.516;3.684;2022-07-29T05:52:55;8.52;;;2.60;;
56423;SDS011;42329;43.516;3.684;2022-07-29T05:55:23;8.77;;;2.45;;
56423;SDS011;42329;43.516;3.684;2022-07-29T05:57:51;10.15;;;2.55;;
56423;SDS011;42329;43.516;3.684;2022-07-29T06:00:19;5.22;;;2.60;;
56423;SDS011;42329;43.516;3.684;2022-07-29T06:02:46;7.05;;;2.55;;
56423;SDS011;42329;43.516;3.684;2022-07-29T06:05:13;9.68;;;2.60;;
56423;SDS011;42329;43.516;3.684;2022-07-29T06:07:41;19.38;;;2.75;;
56423;SDS011;42329;43.516;3.684;2022-07-29T06:10:10;7.57;;;2.83;;
56423;SDS011;42329;43.516;3.684;2022-07-29T06:12:37;8.45;;;2.80;;
56423;SDS011;42329;43.516;3.684;2022-07-29T06:15:05;5.20;;;2.30;;
56423;SDS011;42329;43.516;3.684;2022-07-29T06:17:33;7.38;;;2.63;;
56423;SDS011;42329;43.516;3.684;2022-07-29T06:20:00;12.50;;;2.67;;
56423;SDS011;42329;43.516;3.684;2022-07-29T06:22:28;9.25;;;3.15;;
56423;SDS011;42329;43.516;3.684;2022-07-29T06:24:55;10.90;;;3.17;;
56423;SDS011;42329;43.516;3.684;2022-07-29T06:27:24;7.93;;;3.40;;
56423;SDS011;42329;43.516;3.684;2022-07-29T06:29:51;9.85;;;3.28;;
56423;SDS011;42329;43.516;3.684;2022-07-29T06:32:19;13.90;;;2.78;;
56423;SDS011;42329;43.516;3.684;2022-07-29T06:34:46;13.20;;;3.28;;
56423;SDS011;42329;43.516;3.684;2022-07-29T06:37:14;7.95;;;2.75;;
56423;SDS011;42329;43.516;3.684;2022-07-29T06:39:42;7.20;;;2.55;;
56423;SDS011;42329;43.516;3.684;2022-07-29T06:42:10;8.73;;;2.38;;
56423;SDS011;42329;43.516;3.684;2022-07-29T06:44:38;8.13;;;2.90;;
56423;SDS011;42329;43.516;3.684;2022-07-29T06:47:06;11.88;;;3.30;;
56423;SDS011;42329;43.516;3.684;2022-07-29T06:49:34;11.13;;;2.95;;
56423;SDS011;42329;43.516;3.684;2022-07-29T06:52:03;9.68;;;2.97;;
56423;SDS011;42329;43.516;3.684;2022-07-29T06:54:30;6.28;;;2.80;;
56423;SDS011;42329;43.516;3.684;2022-07-29T06:56:58;9.40;;;3.65;;
56423;SDS011;42329;43.516;3.684;2022-07-29T06:59:25;5.60;;;2.65;;
56423;SDS011;42329;43.516;3.684;2022-07-29T07:01:54;7.03;;;2.92;;
56423;SDS011;42329;43.516;3.684;2022-07-29T07:04:21;8.02;;;3.55;;
56423;SDS011;42329;43.516;3.684;2022-07-29T07:06:48;10.50;;;3.15;;
56423;SDS011;42329;43.516;3.684;2022-07-29T07:09:16;6.05;;;3.00;;
56423;SDS011;42329;43.516;3.684;2022-07-29T07:11:43;8.13;;;2.78;;
56423;SDS011;42329;43.516;3.684;2022-07-29T07:14:10;5.22;;;2.55;;
56423;SDS011;42329;43.516;3.684;2022-07-29T07:16:37;6.43;;;3.13;;
56423;SDS011;42329;43.516;3.684;2022-07-29T07:19:07;13.57;;;3.28;;
56423;SDS011;42329;43.516;3.684;2022-07-29T07:21:34;10.00;;;2.90;;
56423;SDS011;42329;43.516;3.684;2022-07-29T07:24:02;6.30;;;3.30;;
56423;SDS011;42329;43.516;3.684;2022-07-29T07:26:30;9.65;;;2.70;;
56423;SDS011;42329;43.516;3.684;2022-07-29T07:28:57;8.85;;;3.30;;
56423;SDS011;42329;43.516;3.684;2022-07-29T07:31:25;7.13;;;3.00;;
56423;SDS011;42329;43.516;3.684;2022-07-29T07:33:52;4.43;;;3.20;;
56423;SDS011;42329;43.516;3.684;2022-07-29T07:36:22;7.63;;;3.28;;
56423;SDS011;42329;43.516;3.684;2022-07-29T07:38:49;7.65;;;3.30;;
56423;SDS011;42329;43.516;3.684;2022-07-29T07:41:17;10.23;;;3.33;;
56423;SDS011;42329;43.516;3.684;2022-07-29T07:43:44;12.10;;;3.28;;
56423;SDS011;42329;43.516;3.684;2022-07-29T07:46:12;12.40;;;3.25;;
56423;SDS011;42329;43.516;3.684;2022-07-29T07:48:39;13.95;;;3.42;;
56423;SDS011;42329;43.516;3.684;2022-07-29T07:51:07;14.05;;;3.40;;
56423;SDS011;42329;43.516;3.684;2022-07-29T07:53:36;15.30;;;3.25;;
56423;SDS011;42329;43.516;3.684;2022-07-29T07:56:03;9.10;;;3.10;;
56423;SDS011;42329;43.516;3.684;2022-07-29T07:58:32;11.25;;;3.20;;
56423;SDS011;42329;43.516;3.684;2022-07-29T08:01:00;8.70;;;3.10;;
56423;SDS011;42329;43.516;3.684;2022-07-29T08:03:27;9.93;;;2.88;;
56423;SDS011;42329;43.516;3.684;2022-07-29T08:05:55;10.50;;;2.72;;
56423;SDS011;42329;43.516;3.684;2022-07-29T08:08:22;8.05;;;2.70;;
56423;SDS011;42329;43.516;3.684;2022-07-29T08:10:51;5.43;;;2.35;;
56423;SDS011;42329;43.516;3.684;2022-07-29T08:13:19;5.78;;;2.45;;
56423;SDS011;42329;43.516;3.684;2022-07-29T08:15:47;10.10;;;2.88;;
56423;SDS011;42329;43.516;3.684;2022-07-29T08:18:22;4.75;;;2.60;;
56423;SDS011;42329;43.516;3.684;2022-07-29T08:20:50;6.72;;;2.83;;
56423;SDS011;42329;43.516;3.684;2022-07-29T08:23:17;5.40;;;2.47;;
56423;SDS011;42329;43.516;3.684;2022-07-29T08:25:45;14.32;;;3.35;;
56423;SDS011;42329;43.516;3.684;2022-07-29T08:28:14;6.38;;;2.58;;
56423;SDS011;42329;43.516;3.684;2022-07-29T08:30:41;7.97;;;2.75;;
56423;SDS011;42329;43.516;3.684;2022-07-29T08:33:09;8.13;;;2.53;;
56423;SDS011;42329;43.516;3.684;2022-07-29T08:35:36;5.13;;;2.40;;
56423;SDS011;42329;43.516;3.684;2022-07-29T08:38:05;9.05;;;2.83;;
56423;SDS011;42329;43.516;3.684;2022-07-29T08:40:33;7.97;;;2.85;;
56423;SDS011;42329;43.516;3.684;2022-07-29T08:43:04;8.30;;;2.83;;
56423;SDS011;42329;43.516;3.684;2022-07-29T08:45:40;10.95;;;3.05;;
56423;SDS011;42329;43.516;3.684;2022-07-29T08:48:11;5.63;;;3.38;;
56423;SDS011;42329;43.516;3.684;2022-07-29T08:50:38;15.90;;;3.60;;
56423;SDS011;42329;43.516;3.684;2022-07-29T08:53:07;8.88;;;3.10;;
56423;SDS011;42329;43.516;3.684;2022-07-29T08:55:38;9.25;;;3.42;;
56423;SDS011;42329;43.516;3.684;2022-07-29T08:58:07;6.53;;;2.78;;
56423;SDS011;42329;43.516;3.684;2022-07-29T09:00:35;8.05;;;3.25;;
56423;SDS011;42329;43.516;3.684;2022-07-29T09:03:07;10.38;;;2.88;;
56423;SDS011;42329;43.516;3.684;2022-07-29T09:05:40;5.95;;;3.25;;
56423;SDS011;42329;43.516;3.684;2022-07-29T09:08:08;12.32;;;3.15;;
56423;SDS011;42329;43.516;3.684;2022-07-29T09:10:36;37.60;;;4.32;;
56423;SDS011;42329;43.516;3.684;2022-07-29T09:13:03;14.10;;;3.60;;
56423;SDS011;42329;43.516;3.684;2022-07-29T09:15:31;9.15;;;3.15;;
56423;SDS011;42329;43.516;3.684;2022-07-29T09:18:00;12.10;;;3.70;;
56423;SDS011;42329;43.516;3.684;2022-07-29T09:20:28;7.10;;;3.33;;
56423;SDS011;42329;43.516;3.684;2022-07-29T09:23:15;12.75;;;4.32;;
56423;SDS011;42329;43.516;3.684;2022-07-29T09:25:42;8.50;;;3.88;;
56423;SDS011;42329;43.516;3.684;2022-07-29T09:28:11;6.43;;;3.60;;
56423;SDS011;42329;43.516;3.684;2022-07-29T09:30:49;13.68;;;4.35;;
56423;SDS011;42329;43.516;3.684;2022-07-29T09:33:20;9.15;;;3.75;;
56423;SDS011;42329;43.516;3.684;2022-07-29T09:35:58;12.45;;;4.22;;
56423;SDS011;42329;43.516;3.684;2022-07-29T09:38:26;6.80;;;3.90;;
56423;SDS011;42329;43.516;3.684;2022-07-29T09:40:57;14.00;;;4.28;;
56423;SDS011;42329;43.516;3.684;2022-07-29T09:45:53;14.02;;;4.47;;
56423;SDS011;42329;43.516;3.684;2022-07-29T09:48:22;9.13;;;4.22;;
56423;SDS011;42329;43.516;3.684;2022-07-29T09:50:51;14.15;;;5.07;;
56423;SDS011;42329;43.516;3.684;2022-07-29T09:56:07;14.40;;;4.93;;
56423;SDS011;42329;43.516;3.684;2022-07-29T09:58:35;9.20;;;4.38;;
56423;SDS011;42329;43.516;3.684;2022-07-29T10:01:03;9.30;;;4.85;;
56423;SDS011;42329;43.516;3.684;2022-07-29T10:03:32;7.10;;;4.18;;
56423;SDS011;42329;43.516;3.684;2022-07-29T10:06:16;11.27;;;4.13;;
56423;SDS011;42329;43.516;3.684;2022-07-29T10:08:44;10.80;;;3.45;;
56423;SDS011;42329;43.516;3.684;2022-07-29T10:11:12;8.60;;;3.85;;
56423;SDS011;42329;43.516;3.684;2022-07-29T10:13:43;10.45;;;3.65;;
56423;SDS011;42329;43.516;3.684;2022-07-29T10:16:12;5.65;;;3.75;;
56423;SDS011;42329;43.516;3.684;2022-07-29T10:18:42;7.18;;;3.78;;
56423;SDS011;42329;43.516;3.684;2022-07-29T10:21:12;6.32;;;3.70;;
56423;SDS011;42329;43.516;3.684;2022-07-29T10:23:39;8.30;;;4.60;;
56423;SDS011;42329;43.516;3.684;2022-07-29T10:26:07;6.40;;;3.80;;
56423;SDS011;42329;43.516;3.684;2022-07-29T10:28:37;9.85;;;4.38;;
56423;SDS011;42329;43.516;3.684;2022-07-29T10:31:05;11.15;;;4.03;;
56423;SDS011;42329;43.516;3.684;2022-07-29T10:33:41;5.38;;;3.38;;
56423;SDS011;42329;43.516;3.684;2022-07-29T10:36:21;8.15;;;3.97;;
56423;SDS011;42329;43.516;3.684;2022-07-29T10:39:00;9.05;;;4.40;;
56423;SDS011;42329;43.516;3.684;2022-07-29T10:41:43;5.47;;;3.83;;
56423;SDS011;42329;43.516;3.684;2022-07-29T10:44:22;7.40;;;4.18;;
56423;SDS011;42329;43.516;3.684;2022-07-29T10:46:52;8.27;;;3.45;;
56423;SDS011;42329;43.516;3.684;2022-07-29T10:49:22;6.13;;;2.80;;
56423;SDS011;42329;43.516;3.684;2022-07-29T10:51:58;6.45;;;3.75;;
56423;SDS011;42329;43.516;3.684;2022-07-29T10:57:12;5.22;;;2.78;;
56423;SDS011;42329;43.516;3.684;2022-07-29T10:59:40;6.05;;;3.00;;
56423;SDS011;42329;43.516;3.684;2022-07-29T11:05:18;5.68;;;2.97;;
56423;SDS011;42329;43.516;3.684;2022-07-29T11:10:51;4.25;;;3.10;;
56423;SDS011;42329;43.516;3.684;2022-07-29T11:13:49;4.05;;;2.67;;
56423;SDS011;42329;43.516;3.684;2022-07-29T11:16:18;4.70;;;2.80;;
56423;SDS011;42329;43.516;3.684;2022-07-29T11:21:49;5.45;;;2.63;;
56423;SDS011;42329;43.516;3.684;2022-07-29T11:24:18;7.40;;;3.40;;
56423;SDS011;42329;43.516;3.684;2022-07-29T11:29:49;5.25;;;3.20;;
56423;SDS011;42329;43.516;3.684;2022-07-29T11:32:18;5.95;;;2.95;;
56423;SDS011;42329;43.516;3.684;2022-07-29T11:34:47;5.47;;;2.95;;
56423;SDS011;42329;43.516;3.684;2022-07-29T11:37:23;4.38;;;3.00;;
56423;SDS011;42329;43.516;3.684;2022-07-29T11:40:11;4.32;;;3.42;;
56423;SDS011;42329;43.516;3.684;2022-07-29T11:42:44;4.78;;;3.00;;
56423;SDS011;42329;43.516;3.684;2022-07-29T11:45:16;3.63;;;2.60;;
56423;SDS011;42329;43.516;3.684;2022-07-29T11:47:50;6.38;;;2.80;;
56423;SDS011;42329;43.516;3.684;2022-07-29T11:50:26;5.10;;;2.70;;
56423;SDS011;42329;43.516;3.684;2022-07-29T11:53:00;2.80;;;2.10;;
56423;SDS011;42329;43.516;3.684;2022-07-29T11:55:28;3.63;;;1.95;;
56423;SDS011;42329;43.516;3.684;2022-07-29T11:57:57;3.58;;;2.35;;
56423;SDS011;42329;43.516;3.684;2022-07-29T12:00:27;2.95;;;1.90;;
56423;SDS011;42329;43.516;3.684;2022-07-29T12:02:56;5.07;;;3.08;;
56423;SDS011;42329;43.516;3.684;2022-07-29T12:05:35;3.40;;;1.77;;
56423;SDS011;42329;43.516;3.684;2022-07-29T12:08:06;5.63;;;2.22;;
56423;SDS011;42329;43.516;3.684;2022-07-29T12:10:36;2.60;;;2.10;;
56423;SDS011;42329;43.516;3.684;2022-07-29T12:13:04;5.05;;;2.38;;
56423;SDS011;42329;43.516;3.684;2022-07-29T12:15:31;3.38;;;1.98;;
56423;SDS011;42329;43.516;3.684;2022-07-29T12:18:08;4.10;;;1.67;;
56423;SDS011;42329;43.516;3.684;2022-07-29T12:20:37;3.30;;;1.67;;
56423;SDS011;42329;43.516;3.684;2022-07-29T12:23:07;1.98;;;1.65;;
56423;SDS011;42329;43.516;3.684;2022-07-29T12:25:37;2.83;;;1.70;;
56423;SDS011;42329;43.516;3.684;2022-07-29T12:28:05;6.45;;;2.35;;
56423;SDS011;42329;43.516;3.684;2022-07-29T12:30:35;6.57;;;3.30;;
56423;SDS011;42329;43.516;3.684;2022-07-29T12:33:11;5.05;;;2.75;;
56423;SDS011;42329;43.516;3.684;2022-07-29T12:35:40;4.30;;;2.20;;
56423;SDS011;42329;43.516;3.684;2022-07-29T12:38:11;2.92;;;2.10;;
56423;SDS011;42329;43.516;3.684;2022-07-29T12:40:39;8.13;;;3.45;;
56423;SDS011;42329;43.516;3.684;2022-07-29T12:43:10;7.20;;;3.20;;
56423;SDS011;42329;43.516;3.684;2022-07-29T12:45:40;6.53;;;3.03;;
56423;SDS011;42329;43.516;3.684;2022-07-29T12:48:08;5.35;;;2.53;;
56423;SDS011;42329;43.516;3.684;2022-07-29T12:50:36;4.00;;;2.80;;
56423;SDS011;42329;43.516;3.684;2022-07-29T12:53:19;4.70;;;2.42;;
56423;SDS011;42329;43.516;3.684;2022-07-29T12:55:48;6.72;;;3.05;;
56423;SDS011;42329;43.516;3.684;2022-07-29T12:58:30;6.07;;;2.78;;
56423;SDS011;42329;43.516;3.684;2022-07-29T13:01:01;3.97;;;2.40;;
56423;SDS011;42329;43.516;3.684;2022-07-29T13:03:41;5.23;;;2.43;;
56423;SDS011;42329;43.516;3.684;2022-07-29T13:06:31;7.57;;;2.53;;
56423;SDS011;42329;43.516;3.684;2022-07-29T13:09:06;4.25;;;2.63;;
56423;SDS011;42329;43.516;3.684;2022-07-29T13:11:36;6.38;;;2.70;;
56423;SDS011;42329;43.516;3.684;2022-07-29T13:14:06;2.30;;;2.10;;
56423;SDS011;42329;43.516;3.684;2022-07-29T13:16:35;6.28;;;2.70;;
56423;SDS011;42329;43.516;3.684;2022-07-29T13:19:07;3.42;;;2.22;;
56423;SDS011;42329;43.516;3.684;2022-07-29T13:21:37;3.15;;;2.58;;
56423;SDS011;42329;43.516;3.684;2022-07-29T13:24:06;4.60;;;2.35;;
56423;SDS011;42329;43.516;3.684;2022-07-29T13:26:34;3.95;;;2.50;;
56423;SDS011;42329;43.516;3.684;2022-07-29T13:29:06;3.15;;;2.28;;
56423;SDS011;42329;43.516;3.684;2022-07-29T13:31:33;3.45;;;2.08;;
56423;SDS011;42329;43.516;3.684;2022-07-29T13:34:01;7.47;;;2.65;;
56423;SDS011;42329;43.516;3.684;2022-07-29T13:36:29;2.40;;;2.10;;
56423;SDS011;42329;43.516;3.684;2022-07-29T13:38:56;7.85;;;3.20;;
56423;SDS011;42329;43.516;3.684;2022-07-29T13:41:25;9.40;;;2.65;;
56423;SDS011;42329;43.516;3.684;2022-07-29T13:43:52;2.90;;;2.03;;
56423;SDS011;42329;43.516;3.684;2022-07-29T13:46:20;4.70;;;2.80;;
56423;SDS011;42329;43.516;3.684;2022-07-29T13:48:47;4.03;;;2.30;;
56423;SDS011;42329;43.516;3.684;2022-07-29T13:51:15;6.05;;;2.33;;
56423;SDS011;42329;43.516;3.684;2022-07-29T13:53:43;5.68;;;2.55;;
56423;SDS011;42329;43.516;3.684;2022-07-29T13:56:10;3.60;;;2.40;;
56423;SDS011;42329;43.516;3.684;2022-07-29T13:58:39;4.38;;;2.13;;
56423;SDS011;42329;43.516;3.684;2022-07-29T14:01:06;3.92;;;2.03;;
56423;SDS011;42329;43.516;3.684;2022-07-29T14:03:35;4.60;;;2.35;;
56423;SDS011;42329;43.516;3.684;2022-07-29T14:08:34;5.60;;;2.33;;
56423;SDS011;42329;43.516;3.684;2022-07-29T14:11:01;2.85;;;2.50;;
56423;SDS011;42329;43.516;3.684;2022-07-29T14:13:29;3.05;;;2.15;;
56423;SDS011;42329;43.516;3.684;2022-07-29T14:15:58;3.03;;;2.65;;
56423;SDS011;42329;43.516;3.684;2022-07-29T14:18:26;6.22;;;2.30;;
56423;SDS011;42329;43.516;3.684;2022-07-29T14:20:53;8.27;;;2.15;;
56423;SDS011;42329;43.516;3.684;2022-07-29T14:23:21;5.47;;;2.58;;
56423;SDS011;42329;43.516;3.684;2022-07-29T14:25:48;5.10;;;2.40;;
56423;SDS011;42329;43.516;3.684;2022-07-29T14:28:16;4.88;;;2.20;;
56423;SDS011;42329;43.516;3.684;2022-07-29T14:30:44;6.43;;;2.55;;
56423;SDS011;42329;43.516;3.684;2022-07-29T14:33:13;5.35;;;2.00;;
56423;SDS011;42329;43.516;3.684;2022-07-29T14:35:41;2.47;;;2.25;;
56423;SDS011;42329;43.516;3.684;2022-07-29T14:38:08;7.68;;;2.42;;
56423;SDS011;42329;43.516;3.684;2022-07-29T14:40:36;3.30;;;2.10;;
56423;SDS011;42329;43.516;3.684;2022-07-29T14:43:03;4.32;;;1.98;;
56423;SDS011;42329;43.516;3.684;2022-07-29T14:45:31;5.18;;;2.42;;
56423;SDS011;42329;43.516;3.684;2022-07-29T14:47:58;5.05;;;2.10;;
56423;SDS011;42329;43.516;3.684;2022-07-29T14:50:27;8.55;;;2.15;;
56423;SDS011;42329;43.516;3.684;2022-07-29T14:52:55;6.10;;;1.73;;
56423;SDS011;42329;43.516;3.684;2022-07-29T14:55:23;2.70;;;1.70;;
56423;SDS011;42329;43.516;3.684;2022-07-29T14:57:50;3.85;;;1.90;;
56423;SDS011;42329;43.516;3.684;2022-07-29T15:00:18;3.60;;;1.83;;
56423;SDS011;42329;43.516;3.684;2022-07-29T15:02:46;2.67;;;1.38;;
56423;SDS011;42329;43.516;3.684;2022-07-29T15:05:14;7.15;;;2.08;;
56423;SDS011;42329;43.516;3.684;2022-07-29T15:07:43;4.32;;;1.50;;
56423;SDS011;42329;43.516;3.684;2022-07-29T15:10:10;1.33;;;1.23;;
56423;SDS011;42329;43.516;3.684;2022-07-29T15:12:38;1.52;;;1.33;;
56423;SDS011;42329;43.516;3.684;2022-07-29T15:15:05;2.63;;;1.40;;
56423;SDS011;42329;43.516;3.684;2022-07-29T15:17:33;5.68;;;1.88;;
56423;SDS011;42329;43.516;3.684;2022-07-29T15:20:01;2.63;;;1.60;;
56423;SDS011;42329;43.516;3.684;2022-07-29T15:22:29;3.45;;;1.48;;
56423;SDS011;42329;43.516;3.684;2022-07-29T15:24:58;3.47;;;1.55;;